createdAt,value
2017-12-05T00:02:04.776Z,12.13
2017-12-05T00:04:33.099Z,15.73
2017-12-05T00:07:01.432Z,13.33
2017-12-05T00:09:30.521Z,14.20
2017-12-05T00:11:58.839Z,15.87
2017-12-05T00:14:27.182Z,15.67
2017-12-05T00:16:55.501Z,14.23
2017-12-05T00:19:23.837Z,14.33
2017-12-05T00:21:52.180Z,14.93
2017-12-05T00:24:20.511Z,16.20
2017-12-05T00:26:48.840Z,13.37
2017-12-05T00:29:17.176Z,15.30
2017-12-05T00:31:45.515Z,16.73
2017-12-05T00:34:13.850Z,15.23
2017-12-05T00:36:42.168Z,16.97
2017-12-05T00:39:10.504Z,15.73
2017-12-05T00:41:38.829Z,15.23
2017-12-05T00:44:07.139Z,12.80
2017-12-05T00:46:35.536Z,14.33
2017-12-05T00:49:03.855Z,14.50
2017-12-05T00:51:32.180Z,14.67
2017-12-05T00:54:00.509Z,14.23
2017-12-05T00:56:28.820Z,13.73
2017-12-05T00:58:57.955Z,14.33
2017-12-05T01:01:26.272Z,13.47
2017-12-05T01:03:54.605Z,14.73
2017-12-05T01:06:22.965Z,15.13
2017-12-05T01:08:51.289Z,15.20
2017-12-05T01:11:19.668Z,13.33
2017-12-05T01:13:47.968Z,13.00
2017-12-05T01:16:17.047Z,14.60
2017-12-05T01:18:45.366Z,11.73
2017-12-05T01:21:13.699Z,10.00
2017-12-05T01:23:42.040Z,11.13
2017-12-05T01:26:10.392Z,11.80
2017-12-05T01:28:39.468Z,10.60
2017-12-05T01:31:08.552Z,7.70
2017-12-05T01:33:36.890Z,8.60
2017-12-05T01:36:05.204Z,8.20
2017-12-05T01:38:33.520Z,7.83
2017-12-05T01:41:01.857Z,7.10
2017-12-05T01:43:30.184Z,7.00
2017-12-05T01:45:58.500Z,7.10
2017-12-05T01:48:26.838Z,6.97
2017-12-05T01:50:55.157Z,7.40
2017-12-05T01:53:23.503Z,7.20
2017-12-05T01:55:51.840Z,8.30
2017-12-05T01:58:20.158Z,6.40
2017-12-05T02:00:51.013Z,7.30
2017-12-05T02:03:19.328Z,6.00
2017-12-05T02:05:47.648Z,5.63
2017-12-05T02:08:16.032Z,6.00
2017-12-05T02:10:44.340Z,7.53
2017-12-05T02:13:12.687Z,6.00
2017-12-05T02:15:41.031Z,5.17
2017-12-05T02:18:10.112Z,6.53
2017-12-05T02:20:38.429Z,7.07
2017-12-05T02:23:06.760Z,7.63
2017-12-05T02:25:35.104Z,5.53
2017-12-05T02:28:03.415Z,6.80
2017-12-05T02:30:31.737Z,6.20
2017-12-05T02:33:00.375Z,7.83
2017-12-05T02:35:28.683Z,7.10
2017-12-05T02:37:57.780Z,7.47
2017-12-05T02:43:40.362Z,6.60
2017-12-05T02:46:08.711Z,7.23
2017-12-05T02:48:37.039Z,7.53
2017-12-05T02:51:05.356Z,6.90
2017-12-05T02:53:33.716Z,6.30
2017-12-05T02:56:02.803Z,6.20
2017-12-05T02:58:31.884Z,6.40
2017-12-05T03:01:00.234Z,5.20
2017-12-05T03:03:28.552Z,6.67
2017-12-05T03:05:57.635Z,6.83
2017-12-05T03:08:25.975Z,6.50
2017-12-05T03:10:54.303Z,6.10
2017-12-05T03:13:23.380Z,5.33
2017-12-05T03:15:51.707Z,6.37
2017-12-05T03:18:20.031Z,6.73
2017-12-05T03:20:48.359Z,6.77
2017-12-05T03:23:16.671Z,6.53
2017-12-05T03:25:45.049Z,6.07
2017-12-05T03:28:13.364Z,5.00
2017-12-05T03:30:42.444Z,5.83
2017-12-05T03:33:10.795Z,6.10
2017-12-05T03:35:39.123Z,5.97
2017-12-05T03:38:08.210Z,5.67
2017-12-05T03:40:37.403Z,6.93
2017-12-05T03:43:05.715Z,6.57
2017-12-05T03:45:34.031Z,6.63
2017-12-05T03:48:02.380Z,7.63
2017-12-05T03:50:30.695Z,8.90
2017-12-05T03:52:59.018Z,7.20
2017-12-05T03:55:27.364Z,8.50
2017-12-05T03:57:55.679Z,9.60
2017-12-05T04:00:23.999Z,10.80
2017-12-05T04:02:52.332Z,10.97
2017-12-05T04:05:20.668Z,10.33
2017-12-05T04:07:49.023Z,10.27
2017-12-05T04:10:17.339Z,10.43
2017-12-05T04:12:46.449Z,9.90
2017-12-05T04:15:15.531Z,12.43
2017-12-05T04:17:44.657Z,11.43
2017-12-05T04:20:12.999Z,8.97
2017-12-05T04:22:41.330Z,9.67
2017-12-05T04:25:09.656Z,9.20
2017-12-05T04:27:38.007Z,9.37
2017-12-05T04:30:06.384Z,9.50
2017-12-05T04:32:34.705Z,8.67
2017-12-05T04:35:03.809Z,10.00
2017-12-05T04:37:32.131Z,9.00
2017-12-05T04:40:01.211Z,8.90
2017-12-05T04:42:29.572Z,10.57
2017-12-05T04:44:57.905Z,9.80
2017-12-05T04:47:26.224Z,9.20
2017-12-05T04:49:54.558Z,8.13
2017-12-05T04:52:23.300Z,9.40
2017-12-05T04:54:52.430Z,9.10
2017-12-05T04:57:20.772Z,8.10
2017-12-05T04:59:49.107Z,9.33
2017-12-05T05:02:17.433Z,8.83
2017-12-05T05:04:45.743Z,7.90
2017-12-05T05:07:14.095Z,7.90
2017-12-05T05:09:42.421Z,8.03
2017-12-05T05:12:11.499Z,7.90
2017-12-05T05:14:39.848Z,9.33
2017-12-05T05:17:08.216Z,8.37
2017-12-05T05:19:36.535Z,11.10
2017-12-05T05:22:04.875Z,10.10
2017-12-05T05:24:33.185Z,9.80
2017-12-05T05:27:01.500Z,10.10
2017-12-05T05:29:30.591Z,8.80
2017-12-05T05:31:59.676Z,10.67
2017-12-05T05:34:28.783Z,9.77
2017-12-05T05:36:57.883Z,8.87
2017-12-05T05:39:26.975Z,9.60
2017-12-05T05:41:56.071Z,10.20
2017-12-05T05:44:24.440Z,9.20
2017-12-05T05:46:53.530Z,9.83
2017-12-05T05:49:21.843Z,9.77
2017-12-05T05:51:50.191Z,10.00
2017-12-05T05:54:19.264Z,9.13
2017-12-05T05:56:47.588Z,10.70
2017-12-05T05:59:15.962Z,11.73
2017-12-05T06:01:44.283Z,10.80
2017-12-05T06:04:12.613Z,10.67
2017-12-05T06:06:40.943Z,9.90
2017-12-05T06:09:09.268Z,9.73
2017-12-05T06:11:37.588Z,10.77
2017-12-05T06:14:05.928Z,10.70
2017-12-05T06:16:34.251Z,13.50
2017-12-05T06:19:02.608Z,16.30
2017-12-05T06:21:30.929Z,12.90
2017-12-05T06:23:59.254Z,12.07
2017-12-05T06:26:27.603Z,11.40
2017-12-05T06:28:56.684Z,12.80
2017-12-05T06:31:25.016Z,12.77
2017-12-05T06:33:53.350Z,14.03
2017-12-05T06:36:22.428Z,13.63
2017-12-05T06:38:50.768Z,12.47
2017-12-05T06:41:19.088Z,13.13
2017-12-05T06:43:47.399Z,12.13
2017-12-05T06:46:15.777Z,11.77
2017-12-05T06:48:44.105Z,11.00
2017-12-05T06:51:12.432Z,11.13
2017-12-05T06:53:40.769Z,11.87
2017-12-05T06:56:09.088Z,11.70
2017-12-05T06:58:37.399Z,12.03
2017-12-05T07:01:05.736Z,12.93
2017-12-05T07:03:34.079Z,11.10
2017-12-05T07:06:02.450Z,10.43
2017-12-05T07:08:30.771Z,8.77
2017-12-05T07:10:59.084Z,8.40
2017-12-05T07:13:27.444Z,8.67
2017-12-05T07:15:55.776Z,10.00
2017-12-05T07:18:24.100Z,8.20
2017-12-05T07:20:53.038Z,8.80
2017-12-05T07:23:21.348Z,8.67
2017-12-05T07:25:49.659Z,7.50
2017-12-05T07:28:17.994Z,9.00
2017-12-05T07:30:47.073Z,8.37
2017-12-05T07:33:15.394Z,8.00
2017-12-05T07:35:43.743Z,9.13
2017-12-05T07:38:12.828Z,9.57
2017-12-05T07:40:41.915Z,10.53
2017-12-05T07:43:10.253Z,9.90
2017-12-05T07:45:38.564Z,9.80
2017-12-05T07:48:06.871Z,8.73
2017-12-05T07:50:35.987Z,8.17
2017-12-05T07:53:04.300Z,7.90
2017-12-05T07:55:32.620Z,7.83
2017-12-05T07:58:01.719Z,7.83
2017-12-05T08:00:30.952Z,9.07
2017-12-05T08:02:59.294Z,7.67
2017-12-05T08:05:27.611Z,8.00
2017-12-05T08:07:55.933Z,8.30
2017-12-05T08:10:24.271Z,8.17
2017-12-05T08:12:52.589Z,8.03
2017-12-05T08:15:20.903Z,8.00
2017-12-05T08:17:49.224Z,6.17
2017-12-05T08:20:17.551Z,7.97
2017-12-05T08:22:45.892Z,8.47
2017-12-05T08:25:14.221Z,8.80
2017-12-05T08:27:42.540Z,9.00
2017-12-05T08:30:10.876Z,10.20
2017-12-05T08:32:39.224Z,8.90
2017-12-05T08:35:08.316Z,10.17
2017-12-05T08:37:37.403Z,11.23
2017-12-05T08:40:06.517Z,11.40
2017-12-05T08:42:35.596Z,11.77
2017-12-05T08:45:04.684Z,11.50
2017-12-05T08:47:33.047Z,10.00
2017-12-05T08:50:01.364Z,8.97
2017-12-05T08:52:29.671Z,8.83
2017-12-05T08:54:58.018Z,9.20
2017-12-05T08:57:27.098Z,10.30
2017-12-05T08:59:56.184Z,9.47
2017-12-05T09:02:24.512Z,9.93
2017-12-05T09:04:52.865Z,9.10
2017-12-05T09:07:21.192Z,8.80
2017-12-05T09:09:49.605Z,8.90
2017-12-05T09:12:17.883Z,8.50
2017-12-05T09:14:46.972Z,8.80
2017-12-05T09:17:16.087Z,7.17
2017-12-05T09:19:45.785Z,6.40
2017-12-05T09:22:14.871Z,7.67
2017-12-05T09:24:43.218Z,7.93
2017-12-05T09:27:11.540Z,7.50
2017-12-05T09:29:40.696Z,6.70
2017-12-05T09:32:08.992Z,7.57
2017-12-05T09:34:37.321Z,6.80
2017-12-05T09:37:05.675Z,8.00
2017-12-05T09:39:34.771Z,7.57
2017-12-05T09:42:03.860Z,6.50
2017-12-05T09:44:32.956Z,6.40
2017-12-05T09:47:02.042Z,7.47
2017-12-05T09:49:31.132Z,7.17
2017-12-05T09:51:59.479Z,6.83
2017-12-05T09:54:27.804Z,8.20
2017-12-05T09:56:56.915Z,7.67
2017-12-05T09:59:25.256Z,8.00
2017-12-05T10:01:53.584Z,8.20
2017-12-05T10:04:21.907Z,8.40
2017-12-05T10:06:50.264Z,8.47
2017-12-05T10:09:18.569Z,8.40
2017-12-05T10:11:46.891Z,7.90
2017-12-05T10:14:15.223Z,8.60
2017-12-05T10:16:43.539Z,9.33
2017-12-05T10:19:11.853Z,10.00
2017-12-05T10:21:40.203Z,9.60
2017-12-05T10:24:08.520Z,10.37
2017-12-05T10:26:36.867Z,10.20
2017-12-05T10:29:05.200Z,11.77
2017-12-05T10:31:34.275Z,10.30
2017-12-05T10:34:02.628Z,10.40
2017-12-05T10:36:30.956Z,11.63
2017-12-05T10:39:00.046Z,12.40
2017-12-05T10:41:28.487Z,11.90
2017-12-05T10:43:56.815Z,11.90
2017-12-05T10:46:25.898Z,13.40
2017-12-05T10:48:54.305Z,11.40
2017-12-05T10:51:22.596Z,12.27
2017-12-05T10:53:50.915Z,12.30
2017-12-05T10:56:19.263Z,12.97
2017-12-05T10:58:47.606Z,14.13
2017-12-05T11:01:15.959Z,12.87
2017-12-05T11:03:44.281Z,14.13
2017-12-05T11:06:12.603Z,12.63
2017-12-05T11:08:40.966Z,14.83
2017-12-05T11:11:09.284Z,15.60
2017-12-05T11:13:38.371Z,15.97
2017-12-05T11:16:07.487Z,15.57
2017-12-05T11:18:36.579Z,17.03
2017-12-05T11:21:05.667Z,16.07
2017-12-05T11:23:34.787Z,17.50
2017-12-05T11:26:03.111Z,17.80
2017-12-05T11:28:31.443Z,19.23
2017-12-05T11:30:59.767Z,19.20
2017-12-05T11:33:28.095Z,16.60
2017-12-05T11:35:56.435Z,18.30
2017-12-05T11:38:24.779Z,18.17
2017-12-05T11:40:53.097Z,17.70
2017-12-05T11:43:21.419Z,18.90
2017-12-05T11:45:49.735Z,17.90
2017-12-05T11:48:18.078Z,18.67
2017-12-05T11:50:46.412Z,18.23
2017-12-05T11:53:15.501Z,18.57
2017-12-05T11:55:44.624Z,19.00
2017-12-05T11:58:12.979Z,17.03
2017-12-05T12:00:42.075Z,19.77
2017-12-05T12:03:11.194Z,18.77
2017-12-05T12:05:39.507Z,18.67
2017-12-05T12:08:07.848Z,16.60
2017-12-05T12:10:36.187Z,18.00
2017-12-05T12:13:04.507Z,16.37
2017-12-05T12:15:32.823Z,17.00
2017-12-05T12:18:01.175Z,17.47
2017-12-05T12:20:29.504Z,16.00
2017-12-05T12:22:57.827Z,17.10
2017-12-05T12:25:26.158Z,16.43
2017-12-05T12:27:54.498Z,15.50
2017-12-05T12:30:22.812Z,17.20
2017-12-05T12:32:51.138Z,17.67
2017-12-05T12:35:19.484Z,14.20
2017-12-05T12:37:48.579Z,15.20
2017-12-05T12:40:17.672Z,15.50
2017-12-05T12:42:46.800Z,14.70
2017-12-05T12:45:15.115Z,15.17
2017-12-05T12:47:43.443Z,17.00
2017-12-05T12:50:11.816Z,15.13
2017-12-05T12:52:40.947Z,16.30
2017-12-05T12:55:09.250Z,15.20
2017-12-05T12:57:37.597Z,15.00
2017-12-05T13:00:05.911Z,13.97
2017-12-05T13:02:34.236Z,14.50
2017-12-05T13:05:02.632Z,15.40
2017-12-05T13:07:30.952Z,14.90
2017-12-05T13:09:59.281Z,13.80
2017-12-05T13:12:27.635Z,14.60
2017-12-05T13:14:56.734Z,15.30
2017-12-05T13:17:25.055Z,15.50
2017-12-05T13:19:53.391Z,13.80
2017-12-05T13:22:21.723Z,13.93
2017-12-05T13:24:50.046Z,15.00
2017-12-05T13:27:18.388Z,13.57
2017-12-05T13:29:46.709Z,15.30
2017-12-05T13:32:15.038Z,14.97
2017-12-05T13:34:43.416Z,13.73
2017-12-05T13:37:11.732Z,14.77
2017-12-05T13:39:40.060Z,16.57
2017-12-05T13:42:08.428Z,15.60
2017-12-05T13:44:37.511Z,14.87
2017-12-05T13:47:05.829Z,14.77
2017-12-05T13:49:34.270Z,16.10
2017-12-05T13:52:02.587Z,15.50
2017-12-05T13:54:31.700Z,15.10
2017-12-05T13:57:00.813Z,15.90
2017-12-05T13:59:29.132Z,18.27
2017-12-05T14:01:57.452Z,16.83
2017-12-05T14:04:26.564Z,16.70
2017-12-05T14:06:54.881Z,18.40
2017-12-05T14:09:23.199Z,17.20
2017-12-05T14:11:52.314Z,18.60
2017-12-05T14:14:20.693Z,18.00
2017-12-05T14:16:49.019Z,18.37
2017-12-05T14:19:17.404Z,18.67
2017-12-05T14:21:45.735Z,17.90
2017-12-05T14:24:14.051Z,18.07
2017-12-05T14:26:42.415Z,19.60
2017-12-05T14:29:10.740Z,18.20
2017-12-05T14:31:39.823Z,17.93
2017-12-05T14:34:08.181Z,18.17
2017-12-05T14:36:36.520Z,20.07
2017-12-05T14:39:04.861Z,18.60
2017-12-05T14:41:33.203Z,19.40
2017-12-05T14:44:01.516Z,20.43
2017-12-05T14:46:29.860Z,20.30
2017-12-05T14:48:58.203Z,19.27
2017-12-05T14:51:26.520Z,18.90
2017-12-05T14:53:54.880Z,20.00
2017-12-05T14:56:23.248Z,19.63
2017-12-05T14:58:51.597Z,20.33
2017-12-05T15:01:20.680Z,19.67
2017-12-05T15:03:49.039Z,21.17
2017-12-05T15:06:17.368Z,20.43
2017-12-05T15:08:45.701Z,19.83
2017-12-05T15:11:14.056Z,45.77
2017-12-05T15:13:42.412Z,21.13
2017-12-05T15:16:10.744Z,20.03
2017-12-05T15:18:39.067Z,21.40
2017-12-05T15:21:07.417Z,22.53
2017-12-05T15:23:36.507Z,21.10
2017-12-05T15:26:05.588Z,21.47
2017-12-05T15:28:33.935Z,22.57
2017-12-05T15:31:02.256Z,21.83
2017-12-05T15:33:31.351Z,22.07
2017-12-05T15:36:00.465Z,21.27
2017-12-05T15:38:28.783Z,23.40
2017-12-05T15:40:57.101Z,22.43
2017-12-05T15:43:26.228Z,21.30
2017-12-05T15:45:54.567Z,20.33
2017-12-05T15:48:22.893Z,18.70
2017-12-05T15:50:51.252Z,20.10
2017-12-05T15:53:19.598Z,18.00
2017-12-05T15:55:47.936Z,20.30
2017-12-05T15:58:16.291Z,20.40
2017-12-05T16:00:44.621Z,19.60
2017-12-05T16:03:12.952Z,19.23
2017-12-05T16:05:41.295Z,21.23
2017-12-05T16:08:09.616Z,18.10
2017-12-05T16:10:37.934Z,18.87
2017-12-05T16:13:06.305Z,18.60
2017-12-05T16:15:35.888Z,18.20
2017-12-05T16:18:06.645Z,17.00
2017-12-05T16:20:36.285Z,17.63
2017-12-05T16:23:05.415Z,17.53
2017-12-05T16:25:33.845Z,16.60
2017-12-05T16:28:02.185Z,17.33
2017-12-05T16:30:30.535Z,17.27
2017-12-05T16:32:58.897Z,16.93
2017-12-05T16:35:27.215Z,17.03
2017-12-05T16:37:55.531Z,16.73
2017-12-05T16:40:23.888Z,17.43
2017-12-05T16:42:52.220Z,16.70
2017-12-05T16:45:20.555Z,17.17
2017-12-05T16:47:48.936Z,16.90
2017-12-05T16:50:17.256Z,17.33
2017-12-05T16:52:45.592Z,17.77
2017-12-05T16:55:13.919Z,17.33
2017-12-05T16:57:42.269Z,16.50
2017-12-05T17:00:11.363Z,18.07
2017-12-05T17:02:40.460Z,17.33
2017-12-05T17:05:09.568Z,17.93
2017-12-05T17:07:38.852Z,18.00
2017-12-05T17:10:07.171Z,16.63
2017-12-05T17:12:35.515Z,17.40
2017-12-05T17:15:04.604Z,17.83
2017-12-05T17:17:32.932Z,17.60
2017-12-05T17:20:01.298Z,18.40
2017-12-05T17:22:29.619Z,18.10
2017-12-05T17:24:57.987Z,19.60
2017-12-05T17:27:26.299Z,18.43
2017-12-05T17:29:55.402Z,20.17
2017-12-05T17:32:24.503Z,19.10
2017-12-05T17:34:52.832Z,19.90
2017-12-05T17:37:21.168Z,18.47
2017-12-05T17:39:49.487Z,20.60
2017-12-05T17:42:17.807Z,18.97
2017-12-05T17:44:46.152Z,21.50
2017-12-05T17:47:14.484Z,18.93
2017-12-05T17:49:42.810Z,21.13
2017-12-05T17:52:11.169Z,20.33
2017-12-05T17:54:40.111Z,18.70
2017-12-05T17:57:09.207Z,17.87
2017-12-05T17:59:38.332Z,19.07
2017-12-05T18:02:06.692Z,19.80
2017-12-05T18:04:36.328Z,18.43
2017-12-05T18:07:07.280Z,19.50
2017-12-05T18:09:40.172Z,20.17
2017-12-05T18:12:15.237Z,20.10
2017-12-05T18:14:53.047Z,19.13
2017-12-05T18:17:22.167Z,22.33
2017-12-05T18:19:50.491Z,21.30
2017-12-05T18:22:18.819Z,19.80
2017-12-05T18:24:55.699Z,21.20
2017-12-05T18:27:29.729Z,22.10
2017-12-05T18:29:58.464Z,23.80
2017-12-05T18:32:26.784Z,21.67
2017-12-05T18:34:55.115Z,21.08
2017-12-05T18:37:23.427Z,21.77
2017-12-05T18:39:51.772Z,22.07
2017-12-05T18:42:21.991Z,23.03
2017-12-05T18:44:53.666Z,23.17
2017-12-05T18:47:21.980Z,25.37
2017-12-05T18:49:50.327Z,24.37
2017-12-05T18:52:19.429Z,24.73
2017-12-05T18:54:47.757Z,23.23
2017-12-05T18:57:16.114Z,25.40
2017-12-05T18:59:44.861Z,25.10
2017-12-05T19:02:13.960Z,24.60
2017-12-05T19:04:43.397Z,24.93
2017-12-05T19:07:11.772Z,26.23
2017-12-05T19:09:40.087Z,25.73
2017-12-05T19:12:08.436Z,27.10
2017-12-05T19:14:36.763Z,27.40
2017-12-05T19:17:05.871Z,25.00
2017-12-05T19:19:35.001Z,28.13
2017-12-05T19:22:03.326Z,26.90
2017-12-05T19:24:31.659Z,25.50
2017-12-05T19:26:59.988Z,26.80
2017-12-05T19:29:33.001Z,26.90
2017-12-05T19:32:02.197Z,26.87
2017-12-05T19:34:30.520Z,28.67
2017-12-05T19:36:58.839Z,28.67
2017-12-05T19:39:27.186Z,30.40
2017-12-05T19:41:55.561Z,26.93
2017-12-05T19:44:23.884Z,29.40
2017-12-05T19:46:52.212Z,27.53
2017-12-05T19:49:21.311Z,28.43
2017-12-05T19:51:49.652Z,28.90
2017-12-05T19:54:17.972Z,26.83
2017-12-05T19:56:46.312Z,27.87
2017-12-05T19:59:14.632Z,26.60
2017-12-05T20:01:42.978Z,28.70
2017-12-05T20:04:12.070Z,27.77
2017-12-05T20:06:40.851Z,28.13
2017-12-05T20:09:09.201Z,27.57
2017-12-05T20:11:37.548Z,25.27
2017-12-05T20:14:05.863Z,26.07
2017-12-05T20:16:34.211Z,25.80
2017-12-05T20:19:02.531Z,23.30
2017-12-05T20:21:30.851Z,27.40
2017-12-05T20:23:59.193Z,23.70
2017-12-05T20:26:27.523Z,25.70
2017-12-05T20:28:56.887Z,25.10
2017-12-05T20:31:25.219Z,24.47
2017-12-05T20:33:54.311Z,24.80
2017-12-05T20:36:23.421Z,21.93
2017-12-05T20:38:51.786Z,25.00
2017-12-05T20:41:20.875Z,21.57
2017-12-05T20:43:49.992Z,23.73
2017-12-05T20:46:18.365Z,23.87
2017-12-05T20:48:46.693Z,23.47
2017-12-05T20:51:15.100Z,23.20
2017-12-05T20:53:44.228Z,21.70
2017-12-05T20:56:12.600Z,21.23
2017-12-05T20:58:40.939Z,20.37
2017-12-05T21:01:09.256Z,22.50
2017-12-05T21:03:37.599Z,22.50
2017-12-05T21:06:05.919Z,19.80
2017-12-05T21:08:34.260Z,19.67
2017-12-05T21:11:02.595Z,19.10
2017-12-05T21:13:30.915Z,18.60
2017-12-05T21:16:00.021Z,17.40
2017-12-05T21:18:29.168Z,18.07
2017-12-05T21:20:57.491Z,16.70
2017-12-05T21:26:23.813Z,16.77
2017-12-05T21:28:52.134Z,16.83
2017-12-05T21:31:20.490Z,17.20
2017-12-05T21:33:48.812Z,17.23
2017-12-05T21:36:17.148Z,17.50
2017-12-05T21:38:45.500Z,17.83
2017-12-05T21:41:13.858Z,16.50
2017-12-05T21:43:42.186Z,15.87
2017-12-05T21:46:10.512Z,16.13
2017-12-05T21:48:38.856Z,18.07
2017-12-05T21:51:07.943Z,16.47
2017-12-05T21:53:37.059Z,17.90
2017-12-05T21:56:05.392Z,16.87
2017-12-05T21:58:33.711Z,17.00
2017-12-05T22:01:02.079Z,18.53
2017-12-05T22:03:31.163Z,18.30
2017-12-05T22:06:00.260Z,18.83
2017-12-05T22:08:29.386Z,19.33
2017-12-05T22:10:57.728Z,19.47
2017-12-05T22:13:26.054Z,19.80
2017-12-05T22:15:54.403Z,22.57
2017-12-05T22:18:23.520Z,22.77
2017-12-05T22:20:51.841Z,23.63
2017-12-05T22:23:20.157Z,22.33
2017-12-05T22:25:48.515Z,23.93
2017-12-05T22:28:17.624Z,23.27
2017-12-05T22:30:46.735Z,25.20
2017-12-05T22:33:15.055Z,23.63
2017-12-05T22:35:43.403Z,22.93
2017-12-05T22:38:11.724Z,24.20
2017-12-05T22:40:40.044Z,25.10
2017-12-05T22:43:08.400Z,23.37
2017-12-05T22:45:37.511Z,21.77
2017-12-05T22:48:06.596Z,20.40
2017-12-05T22:50:35.733Z,20.10
2017-12-05T22:53:04.056Z,18.73
2017-12-05T22:55:32.440Z,18.10
2017-12-05T22:58:01.568Z,19.60
2017-12-05T23:00:29.908Z,20.47
2017-12-05T23:02:59.009Z,19.03
2017-12-05T23:05:28.145Z,18.43
2017-12-05T23:07:56.463Z,18.73
2017-12-05T23:10:24.780Z,18.80
2017-12-05T23:12:53.147Z,19.27
2017-12-05T23:15:22.227Z,19.17
2017-12-05T23:17:51.328Z,20.90
2017-12-05T23:20:19.695Z,21.40
2017-12-05T23:22:48.025Z,21.70
2017-12-05T23:25:16.359Z,19.07
2017-12-05T23:27:44.708Z,19.70
2017-12-05T23:30:13.055Z,19.23
2017-12-05T23:32:41.406Z,19.40
2017-12-05T23:35:10.495Z,20.23
2017-12-05T23:37:39.579Z,20.93
2017-12-05T23:40:07.976Z,19.60
2017-12-05T23:42:37.060Z,20.07
2017-12-05T23:45:05.384Z,23.40
2017-12-05T23:47:33.722Z,22.07
2017-12-05T23:50:02.847Z,20.53
2017-12-05T23:52:31.169Z,23.17
2017-12-05T23:54:59.508Z,22.00
2017-12-05T23:57:27.869Z,20.20
2017-12-05T23:59:56.792Z,21.80
